Time;durP1;ratioP1;P1;durP2;ratioP2;P2;SDS_P1;SDS_P2;PMS_P1;PMS_P2;Temp;Humidity;BMP_temperature;BMP_pressure;BME280_temperature;BME280_humidity;BME280_pressure;Samples;Min_cycle;Max_cycle;Signal;HPM_P1;HPM_P2
2022/06/20 00:02:17;;;;;;;2.78;1.23;;;12.60;99.90;;;;;;5095247;28;20040;-72
2022/06/20 00:04:43;;;;;;;3.35;1.20;;;12.50;99.90;;;;;;5093785;28;20433;-71
2022/06/20 00:07:11;;;;;;;3.40;1.30;;;12.40;99.90;;;;;;5094310;28;20178;-72
2022/06/20 00:09:37;;;;;;;5.07;1.20;;;12.40;99.90;;;;;;5093859;28;20123;-71
2022/06/20 00:12:04;;;;;;;3.95;1.17;;;12.30;99.90;;;;;;5081405;28;20170;-72
2022/06/20 00:14:29;;;;;;;4.63;1.30;;;12.20;99.90;;;;;;5094173;28;20036;-71
2022/06/20 00:16:55;;;;;;;4.00;0.90;;;12.20;99.90;;;;;;5094659;28;20047;-72
2022/06/20 00:19:21;;;;;;;3.08;1.15;;;12.30;99.90;;;;;;5094475;28;20052;-72
2022/06/20 00:21:47;;;;;;;3.88;1.25;;;12.20;99.90;;;;;;5094337;28;20044;-72
2022/06/20 00:24:13;;;;;;;2.75;1.30;;;12.20;99.90;;;;;;5094941;28;20041;-71
2022/06/20 00:26:39;;;;;;;4.00;1.20;;;12.20;99.90;;;;;;5094081;28;20043;-72
2022/06/20 00:29:06;;;;;;;4.63;1.70;;;12.20;99.90;;;;;;5094117;28;20050;-71
2022/06/20 00:31:32;;;;;;;3.80;1.02;;;12.20;99.90;;;;;;5094549;28;20059;-72
2022/06/20 00:33:58;;;;;;;3.70;2.00;;;12.10;99.90;;;;;;5093636;28;20052;-71
2022/06/20 00:36:24;;;;;;;5.13;1.67;;;12.20;99.90;;;;;;5094300;28;20126;-72
2022/06/20 00:38:53;;;;;;;5.05;1.23;;;12.10;99.90;;;;;;5094565;28;20080;-71
2022/06/20 00:41:45;;;;;;;2.30;1.40;;;12.00;99.90;;;;;;5094156;28;20072;-71
2022/06/20 00:44:14;;;;;;;4.05;1.05;;;11.90;99.90;;;;;;5074935;28;20055;-71
2022/06/20 00:46:51;;;;;;;3.20;1.10;;;11.90;99.90;;;;;;5093933;28;20047;-71
2022/06/20 00:49:31;;;;;;;3.97;1.30;;;11.90;99.90;;;;;;5094438;28;20181;-72
2022/06/20 00:52:22;;;;;;;3.28;1.30;;;11.90;99.90;;;;;;5093864;28;20472;-71
2022/06/20 00:54:58;;;;;;;4.60;1.30;;;11.80;99.90;;;;;;5090397;28;20060;-72
2022/06/20 00:57:44;;;;;;;3.90;1.30;;;11.80;99.90;;;;;;5076431;28;20118;-72
2022/06/20 01:00:17;;;;;;;6.28;1.42;;;11.80;99.90;;;;;;5093947;28;20048;-73
2022/06/20 01:02:46;;;;;;;2.65;1.13;;;11.80;99.90;;;;;;5092331;28;20048;-71
2022/06/20 01:05:32;;;;;;;2.70;1.30;;;11.90;99.90;;;;;;5092655;28;20640;-71
2022/06/20 01:08:14;;;;;;;2.40;1.08;;;11.90;99.90;;;;;;5085096;28;20052;-71
2022/06/20 01:11:02;;;;;;;4.25;1.27;;;11.90;99.90;;;;;;5093458;28;20123;-71
2022/06/20 01:13:27;;;;;;;3.20;1.27;;;12.00;99.90;;;;;;5087097;28;20051;-71
2022/06/20 01:15:58;;;;;;;3.20;1.48;;;12.00;99.90;;;;;;5093883;28;20080;-72
2022/06/20 01:18:28;;;;;;;5.07;1.60;;;12.10;99.90;;;;;;5094100;28;20411;-72
2022/06/20 01:20:56;;;;;;;5.60;1.63;;;12.20;99.90;;;;;;5091765;28;20090;-72
2022/06/20 01:23:40;;;;;;;6.55;1.88;;;12.20;99.90;;;;;;5093649;28;20492;-72
2022/06/20 01:26:23;;;;;;;5.22;2.05;;;12.20;99.90;;;;;;5080341;28;20051;-72
2022/06/20 01:28:53;;;;;;;3.03;1.10;;;12.20;99.90;;;;;;5093512;28;20039;-72
2022/06/20 01:31:20;;;;;;;3.63;1.60;;;12.20;99.90;;;;;;5087032;28;20075;-72
2022/06/20 01:33:49;;;;;;;4.88;1.55;;;12.20;99.90;;;;;;5093291;28;20451;-71
2022/06/20 01:39:00;;;;;;;6.80;2.38;;;12.30;99.90;;;;;;5073502;28;20504;-71
2022/06/20 01:44:13;;;;;;;;;;;12.20;99.90;;;;;;5092281;28;20059;-72
2022/06/20 01:46:38;;;;;;;4.17;1.43;;;12.20;99.90;;;;;;5083586;28;19923;-72
2022/06/20 01:49:09;;;;;;;3.72;1.35;;;12.20;99.90;;;;;;5093136;28;20123;-72
2022/06/20 01:51:55;;;;;;;3.67;1.50;;;12.10;99.90;;;;;;5093261;28;20127;-72
2022/06/20 01:54:22;;;;;;;3.47;1.40;;;12.20;99.90;;;;;;5093496;28;20044;-71
2022/06/20 01:56:50;;;;;;;5.25;1.60;;;12.20;99.90;;;;;;5092846;28;20449;-72
2022/06/20 01:59:30;;;;;;;3.22;1.30;;;12.20;99.90;;;;;;5093128;28;20043;-72
2022/06/20 02:01:56;;;;;;;3.45;1.58;;;12.30;99.90;;;;;;5055576;28;20117;-72
2022/06/20 02:04:27;;;;;;;2.85;1.20;;;12.30;99.90;;;;;;5092046;28;20068;-72
2022/06/20 02:06:54;;;;;;;5.05;1.50;;;12.30;99.90;;;;;;5092773;28;20064;-71
2022/06/20 02:09:20;;;;;;;3.47;1.27;;;12.30;99.90;;;;;;5081439;28;20123;-72
2022/06/20 02:11:47;;;;;;;4.63;1.45;;;12.30;99.90;;;;;;5092712;28;20052;-72
2022/06/20 02:14:23;;;;;;;5.10;1.90;;;12.30;99.90;;;;;;5092598;28;20040;-71
2022/06/20 02:17:02;;;;;;;5.70;2.27;;;12.30;99.90;;;;;;5071823;28;20721;-72
2022/06/20 02:19:32;;;;;;;4.57;1.50;;;12.30;99.90;;;;;;5088153;28;20048;-72
2022/06/20 02:22:01;;;;;;;3.33;1.38;;;12.20;99.90;;;;;;5092686;28;20043;-72
2022/06/20 02:24:31;;;;;;;3.88;1.50;;;12.20;99.90;;;;;;5092600;28;20059;-71
2022/06/20 02:27:01;;;;;;;3.28;1.30;;;12.20;99.90;;;;;;5088097;28;20041;-71
2022/06/20 02:29:29;;;;;;;4.30;1.63;;;12.10;99.90;;;;;;5072321;28;20177;-72
2022/06/20 02:32:11;;;;;;;2.83;1.40;;;12.10;99.90;;;;;;5090754;28;20089;-72
2022/06/20 02:34:36;;;;;;;3.50;1.60;;;12.10;99.90;;;;;;5091931;28;20540;-71
2022/06/20 02:37:09;;;;;;;4.25;1.52;;;12.00;99.90;;;;;;5092227;28;20119;-72
2022/06/20 02:39:38;;;;;;;4.70;1.60;;;12.00;99.90;;;;;;5092414;28;20059;-73
2022/06/20 02:42:08;;;;;;;3.13;1.67;;;12.00;99.90;;;;;;5084953;28;20081;-71
2022/06/20 02:44:34;;;;;;;5.55;2.00;;;12.00;99.90;;;;;;5091495;28;20405;-71
2022/06/20 02:47:06;;;;;;;4.75;1.50;;;12.00;99.90;;;;;;5092251;28;20044;-72
2022/06/20 02:49:33;;;;;;;3.53;1.77;;;11.90;99.90;;;;;;5091844;28;20052;-72
2022/06/20 02:52:01;;;;;;;4.05;1.42;;;11.80;99.90;;;;;;5091860;28;20048;-71
2022/06/20 02:54:31;;;;;;;4.53;1.70;;;11.80;99.90;;;;;;5092033;28;20137;-72
2022/06/20 02:57:06;;;;;;;4.88;1.50;;;11.70;99.90;;;;;;5092224;28;20086;-72
2022/06/20 02:59:44;;;;;;;5.13;1.65;;;11.70;99.90;;;;;;5091912;28;20055;-72
2022/06/20 03:02:11;;;;;;;3.22;1.55;;;11.60;99.90;;;;;;5092031;28;20507;-72
2022/06/20 03:04:41;;;;;;;3.17;1.50;;;11.60;99.90;;;;;;5085581;28;20067;-71
2022/06/20 03:07:18;;;;;;;5.20;1.90;;;11.50;99.90;;;;;;5091280;28;20562;-72
2022/06/20 03:09:47;;;;;;;4.07;1.60;;;11.50;99.90;;;;;;5076865;28;20089;-71
2022/06/20 03:12:14;;;;;;;2.63;1.50;;;11.40;99.90;;;;;;5091808;28;20047;-71
2022/06/20 03:14:46;;;;;;;3.85;1.63;;;11.30;99.90;;;;;;5091223;28;20101;-72
2022/06/20 03:17:14;;;;;;;5.60;1.70;;;11.30;99.90;;;;;;5091530;28;20046;-71
2022/06/20 03:19:42;;;;;;;6.13;1.77;;;11.20;99.90;;;;;;5091080;28;20055;-71
2022/06/20 03:22:13;;;;;;;3.92;1.88;;;11.20;99.90;;;;;;5091491;28;20124;-71
2022/06/20 03:24:41;;;;;;;5.78;1.95;;;11.10;99.90;;;;;;5077455;28;20052;-71
2022/06/20 03:27:12;;;;;;;4.50;1.70;;;11.00;99.90;;;;;;5090278;28;20047;-71
2022/06/20 03:29:40;;;;;;;3.92;1.55;;;10.90;99.90;;;;;;5091646;28;20048;-71
2022/06/20 03:32:06;;;;;;;2.83;1.48;;;10.90;99.90;;;;;;5091285;28;20056;-71
2022/06/20 03:34:32;;;;;;;4.68;2.25;;;10.90;99.90;;;;;;5083091;28;20382;-71
2022/06/20 03:37:00;;;;;;;3.05;1.60;;;10.90;99.90;;;;;;5089974;28;20044;-71
2022/06/20 03:39:26;;;;;;;5.63;1.95;;;10.90;99.90;;;;;;5078358;28;20126;-71
2022/06/20 03:41:51;;;;;;;5.18;1.90;;;10.90;99.90;;;;;;5078249;28;20139;-72
2022/06/20 03:44:22;;;;;;;3.05;1.40;;;10.80;99.90;;;;;;5088333;28;20247;-71
2022/06/20 03:47:25;;;;;;;3.92;1.60;;;10.80;99.90;;;;;;5072321;28;20048;-72
2022/06/20 03:50:27;;;;;;;5.22;1.77;;;10.80;99.90;;;;;;4989410;28;20112;-71
2022/06/20 03:53:05;;;;;;;2.72;1.70;;;10.80;99.90;;;;;;5086089;28;20614;-71
2022/06/20 03:55:55;;;;;;;3.10;1.55;;;10.70;99.90;;;;;;5091242;28;20084;-71
2022/06/20 03:58:38;;;;;;;4.30;1.58;;;10.70;99.90;;;;;;5080566;28;20477;-71
2022/06/20 04:01:16;;;;;;;3.67;1.80;;;10.70;99.90;;;;;;5091148;28;20048;-71
2022/06/20 04:03:47;;;;;;;4.47;1.58;;;10.70;99.90;;;;;;5091106;28;20044;-71
2022/06/20 04:06:39;;;;;;;3.47;1.58;;;10.70;99.90;;;;;;5090011;28;20104;-72
2022/06/20 04:12:16;;;;;;;3.40;1.60;;;10.80;99.90;;;;;;5091026;28;20082;-72
2022/06/20 04:14:52;;;;;;;2.80;1.73;;;10.80;99.90;;;;;;5079124;28;20094;-72
2022/06/20 04:20:26;;;;;;;3.17;1.63;;;10.80;99.90;;;;;;5091052;28;20051;-72
2022/06/20 04:22:54;;;;;;;3.65;1.80;;;10.80;99.90;;;;;;5091066;28;20089;-71
2022/06/20 04:25:37;;;;;;;3.63;1.70;;;10.90;99.90;;;;;;5089061;28;20044;-71
2022/06/20 04:28:24;;;;;;;5.82;2.00;;;11.00;99.90;;;;;;5091059;28;20059;-71
2022/06/20 04:31:16;;;;;;;3.15;2.15;;;11.00;99.90;;;;;;5085848;28;20498;-72
2022/06/20 04:33:48;;;;;;;7.82;1.73;;;11.10;99.90;;;;;;5090801;28;20097;-72
2022/06/20 04:36:38;;;;;;;8.20;2.22;;;11.30;99.90;;;;;;5082328;28;20089;-71
2022/06/20 04:39:12;;;;;;;4.30;2.03;;;11.40;99.90;;;;;;5090418;28;20048;-72
2022/06/20 04:41:50;;;;;;;3.05;2.10;;;11.40;99.90;;;;;;5090692;28;20060;-71
2022/06/20 04:44:55;;;;;;;2.75;1.80;;;11.70;99.90;;;;;;5090706;28;20036;-70
2022/06/20 04:47:58;;;;;;;5.85;2.95;;;11.80;99.90;;;;;;5070923;28;20055;-71
2022/06/20 04:50:26;;;;;;;5.28;2.35;;;12.00;99.90;;;;;;5080873;28;20123;-71
2022/06/20 04:52:55;;;;;;;6.70;2.15;;;12.10;99.90;;;;;;5094244;28;20101;-71
2022/06/20 04:55:25;;;;;;;2.63;1.60;;;12.20;99.90;;;;;;5092992;28;20051;-70
2022/06/20 04:57:54;;;;;;;4.00;1.80;;;12.40;99.90;;;;;;5094428;28;20048;-72
2022/06/20 05:00:25;;;;;;;6.18;2.08;;;12.60;99.90;;;;;;5093401;28;20527;-71
2022/06/20 05:02:53;;;;;;;5.15;2.08;;;12.70;99.90;;;;;;5094099;28;20043;-71
2022/06/20 05:05:24;;;;;;;3.50;1.70;;;12.80;99.90;;;;;;5093163;28;20059;-73
2022/06/20 05:07:51;;;;;;;5.55;1.90;;;12.90;99.90;;;;;;5094052;28;20062;-72
2022/06/20 05:10:26;;;;;;;4.35;1.70;;;12.90;99.90;;;;;;5094068;28;20048;-72
2022/06/20 05:13:09;;;;;;;3.80;1.90;;;13.00;99.90;;;;;;5087307;28;20055;-71
2022/06/20 05:15:47;;;;;;;4.18;1.65;;;13.00;99.90;;;;;;5093987;28;20040;-72
2022/06/20 05:18:22;;;;;;;4.53;1.80;;;13.10;99.90;;;;;;5093850;28;20055;-72
2022/06/20 05:20:50;;;;;;;4.10;1.60;;;13.20;99.90;;;;;;5094032;28;20052;-71
2022/06/20 05:23:25;;;;;;;4.65;2.13;;;13.30;99.90;;;;;;5089352;28;20036;-71
2022/06/20 05:25:52;;;;;;;4.57;1.95;;;13.40;99.90;;;;;;5093586;28;20048;-72
2022/06/20 05:28:21;;;;;;;3.28;1.60;;;13.50;99.90;;;;;;5093634;28;20048;-72
2022/06/20 05:30:47;;;;;;;3.40;1.55;;;13.60;99.90;;;;;;5093720;28;20044;-72
2022/06/20 05:33:36;;;;;;;4.63;2.00;;;13.70;99.90;;;;;;5075595;28;20098;-73
2022/06/20 05:36:20;;;;;;;4.38;1.75;;;13.80;99.90;;;;;;5093000;28;20071;-72
2022/06/20 05:39:17;;;;;;;6.78;2.22;;;13.90;99.90;;;;;;5093951;28;20087;-72
2022/06/20 05:41:43;;;;;;;3.58;1.70;;;14.00;99.90;;;;;;5084888;28;20056;-73
2022/06/20 05:44:12;;;;;;;3.95;1.52;;;14.00;99.90;;;;;;5093199;28;20127;-72
2022/06/20 05:46:50;;;;;;;6.07;1.90;;;14.10;99.90;;;;;;5093376;28;20036;-72
2022/06/20 05:49:25;;;;;;;3.63;1.70;;;14.20;99.90;;;;;;5093120;28;20075;-73
2022/06/20 05:51:53;;;;;;;3.40;1.60;;;14.20;99.90;;;;;;5093476;28;20056;-72
2022/06/20 05:54:21;;;;;;;4.63;1.80;;;14.30;99.90;;;;;;5093181;28;20079;-71
2022/06/20 05:56:53;;;;;;;4.57;1.83;;;14.40;99.90;;;;;;5093287;28;20040;-71
2022/06/20 05:59:25;;;;;;;3.72;1.95;;;14.40;99.90;;;;;;5093146;28;20133;-72
2022/06/20 06:01:58;;;;;;;5.05;2.08;;;14.50;99.90;;;;;;5092921;28;20054;-72
2022/06/20 06:04:30;;;;;;;5.65;2.00;;;14.50;99.90;;;;;;5092155;28;20055;-71
2022/06/20 06:07:02;;;;;;;4.85;1.85;;;14.60;99.90;;;;;;5092673;28;20480;-72
2022/06/20 06:09:44;;;;;;;5.45;2.50;;;14.70;99.90;;;;;;5092587;28;20536;-72
2022/06/20 06:12:18;;;;;;;4.22;1.90;;;14.80;99.90;;;;;;5092583;28;20040;-67
2022/06/20 06:14:48;;;;;;;4.05;1.67;;;14.80;99.90;;;;;;5092927;28;20134;-67
2022/06/20 06:17:24;;;;;;;5.43;1.90;;;14.90;99.90;;;;;;5092551;28;20389;-68
2022/06/20 06:20:00;;;;;;;5.32;1.73;;;14.90;99.90;;;;;;5092704;28;20054;-67
2022/06/20 06:22:35;;;;;;;3.75;1.50;;;15.00;99.90;;;;;;5088016;28;20052;-67
2022/06/20 06:25:18;;;;;;;4.85;1.67;;;15.10;99.90;;;;;;5092908;28;20050;-68
2022/06/20 06:27:47;;;;;;;5.80;1.98;;;15.10;99.90;;;;;;5090697;28;20117;-67
2022/06/20 06:30:45;;;;;;;5.15;1.80;;;15.10;99.90;;;;;;5092283;28;20055;-67
2022/06/20 06:33:35;;;;;;;4.65;2.00;;;15.10;99.90;;;;;;5082717;28;20131;-70
2022/06/20 06:36:07;;;;;;;4.05;1.90;;;15.20;99.90;;;;;;5091961;28;20047;-69
2022/06/20 06:38:45;;;;;;;6.43;2.00;;;15.30;99.90;;;;;;5091637;28;20468;-67
2022/06/20 06:41:40;;;;;;;4.95;1.90;;;15.30;99.90;;;;;;5091753;28;20100;-68
2022/06/20 06:44:16;;;;;;;5.43;2.42;;;15.40;99.90;;;;;;5083168;28;20404;-69
2022/06/20 06:46:45;;;;;;;;;;;15.40;99.90;;;;;;5092472;28;20101;-68
2022/06/20 06:49:44;;;;;;;5.97;1.77;;;15.40;99.90;;;;;;5076578;28;19928;-68
2022/06/20 06:52:27;;;;;;;5.95;1.77;;;15.40;99.90;;;;;;5080739;28;20055;-69
2022/06/20 06:55:01;;;;;;;5.10;2.35;;;15.60;99.90;;;;;;5092095;28;20042;-68
2022/06/20 06:57:38;;;;;;;4.93;1.92;;;15.70;99.90;;;;;;5091847;28;20046;-69
2022/06/20 07:00:04;;;;;;;4.18;1.95;;;15.80;99.90;;;;;;5092003;28;20104;-69
2022/06/20 07:02:35;;;;;;;6.20;1.80;;;15.80;99.90;;;;;;5091659;28;20051;-69
2022/06/20 07:05:07;;;;;;;4.80;2.00;;;15.80;99.90;;;;;;5091077;28;20052;-69
2022/06/20 07:07:41;;;;;;;6.63;1.80;;;15.70;99.90;;;;;;5091350;28;20048;-69
2022/06/20 07:10:17;;;;;;;3.83;2.10;;;15.50;99.90;;;;;;5091072;28;20079;-68
2022/06/20 07:12:48;;;;;;;7.65;2.30;;;15.40;99.90;;;;;;5091702;28;20079;-69
2022/06/20 07:15:22;;;;;;;5.18;2.08;;;15.50;99.90;;;;;;5091528;28;20044;-68
2022/06/20 07:17:56;;;;;;;4.82;2.42;;;15.70;99.90;;;;;;5091516;28;20500;-68
2022/06/20 07:20:26;;;;;;;5.97;1.98;;;15.90;99.90;;;;;;5091408;28;20060;-68
2022/06/20 07:22:52;;;;;;;7.43;2.30;;;16.00;99.90;;;;;;5067060;28;20123;-69
2022/06/20 07:25:27;;;;;;;4.13;2.00;;;16.00;99.90;;;;;;5086956;28;20123;-69
2022/06/20 07:28:21;;;;;;;8.10;2.50;;;15.70;99.90;;;;;;5088501;28;20044;-68
2022/06/20 07:30:53;;;;;;;10.00;2.60;;;15.60;99.90;;;;;;5036121;28;20063;-67
2022/06/20 07:33:38;;;;;;;6.00;2.28;;;15.40;99.90;;;;;;5090200;28;20121;-68
2022/06/20 07:36:07;;;;;;;5.47;2.00;;;15.30;99.90;;;;;;5089199;28;20078;-68
2022/06/20 07:38:58;;;;;;;5.30;2.03;;;15.10;99.90;;;;;;5083800;28;20385;-68
2022/06/20 07:41:33;;;;;;;6.55;2.25;;;15.20;99.90;;;;;;5069932;28;20092;-68
2022/06/20 07:44:07;;;;;;;4.18;1.60;;;15.40;99.90;;;;;;5089978;28;20044;-68
2022/06/20 07:46:41;;;;;;;3.90;1.52;;;15.60;99.90;;;;;;5090427;28;20036;-69
2022/06/20 07:49:17;;;;;;;6.57;1.90;;;15.80;99.90;;;;;;5055331;28;20056;-68
2022/06/20 07:51:47;;;;;;;6.53;1.80;;;16.00;99.90;;;;;;5090504;28;20074;-68
2022/06/20 07:54:23;;;;;;;4.72;1.70;;;16.10;99.90;;;;;;5089794;28;20035;-68
2022/06/20 07:56:57;;;;;;;5.82;1.80;;;16.20;99.90;;;;;;5090923;28;20125;-68
2022/06/20 07:59:48;;;;;;;6.20;1.90;;;16.30;99.90;;;;;;5090245;28;20051;-69
2022/06/20 08:02:27;;;;;;;4.55;1.80;;;16.50;99.90;;;;;;5090143;28;20058;-69
2022/06/20 08:04:58;;;;;;;6.13;2.08;;;16.60;99.90;;;;;;5089498;28;20145;-69
2022/06/20 08:07:32;;;;;;;5.00;1.95;;;16.80;99.90;;;;;;5089992;28;20044;-69
2022/06/20 08:09:59;;;;;;;2.97;1.40;;;17.00;99.90;;;;;;5090669;28;20083;-69
2022/06/20 08:12:36;;;;;;;5.30;1.98;;;17.30;99.90;;;;;;5090184;28;20048;-68
2022/06/20 08:15:07;;;;;;;4.20;1.90;;;17.40;99.90;;;;;;5089281;28;20508;-68
2022/06/20 08:17:33;;;;;;;6.07;1.83;;;17.40;99.90;;;;;;5090603;28;20040;-68
2022/06/20 08:19:59;;;;;;;3.17;1.88;;;17.30;99.90;;;;;;5090686;28;20048;-69
2022/06/20 08:22:33;;;;;;;5.47;2.20;;;17.10;99.90;;;;;;5093750;28;20090;-67
2022/06/20 08:25:16;;;;;;;4.40;1.80;;;16.90;99.90;;;;;;5094482;28;20051;-68
2022/06/20 08:27:43;;;;;;;3.38;1.60;;;16.70;99.90;;;;;;5094675;28;20044;-68
2022/06/20 08:30:41;;;;;;;5.03;1.90;;;16.60;99.90;;;;;;5094238;28;20407;-69
2022/06/20 08:33:28;;;;;;;4.05;1.73;;;16.60;99.90;;;;;;5094265;28;20392;-67
2022/06/20 08:36:02;;;;;;;6.72;1.95;;;16.60;99.90;;;;;;5089746;28;20043;-69
2022/06/20 08:38:42;;;;;;;4.55;1.88;;;16.60;99.90;;;;;;5094347;28;20148;-67
2022/06/20 08:41:33;;;;;;;4.43;1.80;;;16.50;99.90;;;;;;5094305;28;20079;-68
2022/06/20 08:44:07;;;;;;;4.45;1.90;;;16.50;99.90;;;;;;5093654;28;20082;-69
2022/06/20 08:47:11;;;;;;;5.38;1.70;;;16.60;99.90;;;;;;5038769;28;20040;-68
2022/06/20 08:49:48;;;;;;;5.25;1.90;;;16.70;99.90;;;;;;5080561;28;20128;-68
2022/06/20 08:52:34;;;;;;;3.95;1.70;;;16.70;99.90;;;;;;5089678;28;20052;-68
2022/06/20 08:54:59;;;;;;;8.93;2.33;;;16.90;99.90;;;;;;5089714;28;20074;-68
2022/06/20 08:57:34;;;;;;;4.88;1.73;;;17.00;99.90;;;;;;5091364;28;20411;-69
2022/06/20 09:00:19;;;;;;;7.03;2.15;;;17.20;99.90;;;;;;5093369;28;20094;-68
2022/06/20 09:03:00;;;;;;;6.18;1.77;;;17.30;99.90;;;;;;5085515;28;20066;-69
2022/06/20 09:06:00;;;;;;;3.63;1.50;;;17.30;99.90;;;;;;5092649;28;20117;-69
2022/06/20 09:08:42;;;;;;;4.43;1.70;;;17.30;99.90;;;;;;5006103;28;20072;-68
2022/06/20 09:11:21;;;;;;;4.53;1.70;;;17.40;99.90;;;;;;5093689;28;20395;-68
2022/06/20 09:13:56;;;;;;;3.20;1.42;;;17.40;99.90;;;;;;5092797;28;20039;-68
2022/06/20 09:16:26;;;;;;;4.80;1.83;;;17.40;99.90;;;;;;5093132;28;20051;-68
2022/06/20 09:19:25;;;;;;;5.18;1.90;;;17.30;99.90;;;;;;5085698;28;20123;-68
2022/06/20 09:22:29;;;;;;;4.55;1.90;;;17.30;99.90;;;;;;5093903;28;20226;-68
2022/06/20 09:25:17;;;;;;;3.53;1.60;;;17.40;99.90;;;;;;5087703;28;20078;-68
2022/06/20 09:27:48;;;;;;;3.88;1.17;;;17.20;99.90;;;;;;5093663;28;20048;-68
2022/06/20 09:30:19;;;;;;;3.13;1.20;;;17.20;99.90;;;;;;5093053;28;20189;-68
2022/06/20 09:33:16;;;;;;;3.40;1.10;;;17.20;99.90;;;;;;5072919;28;20117;-68
2022/06/20 09:36:06;;;;;;;2.75;1.02;;;17.20;99.90;;;;;;5083278;28;20097;-68
2022/06/20 09:38:47;;;;;;;3.00;1.00;;;17.10;99.90;;;;;;5076574;28;20451;-67
2022/06/20 09:41:30;;;;;;;3.08;1.20;;;17.30;99.90;;;;;;5080540;28;20090;-68
2022/06/20 09:44:17;;;;;;;2.92;1.23;;;17.50;99.90;;;;;;5074662;28;20044;-67
2022/06/20 09:47:08;;;;;;;5.00;1.20;;;17.70;99.90;;;;;;5074780;28;20130;-69
2022/06/20 09:49:47;;;;;;;2.55;1.00;;;18.00;99.90;;;;;;5092486;28;20075;-67
2022/06/20 09:52:51;;;;;;;2.40;0.90;;;18.10;99.90;;;;;;5085618;28;20044;-68
2022/06/20 09:56:03;;;;;;;3.20;1.23;;;18.30;99.90;;;;;;5072517;28;20048;-68
2022/06/20 09:58:47;;;;;;;2.70;1.20;;;18.50;99.90;;;;;;5073407;28;20450;-68
2022/06/20 10:01:22;;;;;;;2.63;1.10;;;18.50;99.90;;;;;;5092320;28;20131;-67
2022/06/20 10:03:54;;;;;;;3.55;1.02;;;18.40;99.90;;;;;;5072394;28;20052;-67
2022/06/20 10:06:46;;;;;;;2.55;1.10;;;18.30;99.90;;;;;;5071489;28;20056;-68
2022/06/20 10:09:15;;;;;;;1.85;1.00;;;18.20;99.90;;;;;;5072618;28;20044;-68
2022/06/20 10:12:04;;;;;;;3.42;1.52;;;18.10;99.90;;;;;;5071511;28;20098;-68
2022/06/20 10:15:02;;;;;;;3.65;1.23;;;18.10;99.90;;;;;;5072318;28;20186;-69
2022/06/20 10:17:48;;;;;;;2.03;1.00;;;18.00;99.90;;;;;;5072356;28;20056;-68
2022/06/20 10:20:39;;;;;;;3.75;1.30;;;17.80;99.90;;;;;;5071933;28;20137;-69
2022/06/20 10:23:26;;;;;;;3.67;1.33;;;17.60;99.90;;;;;;5080175;28;20384;-69
2022/06/20 10:26:18;;;;;;;4.30;1.20;;;17.50;99.90;;;;;;5092084;28;20123;-68
2022/06/20 10:29:22;;;;;;;3.22;1.25;;;17.50;99.90;;;;;;5090854;28;20051;-68
2022/06/20 10:32:16;;;;;;;4.35;1.33;;;17.80;99.90;;;;;;5091395;28;20509;-68
2022/06/20 10:34:44;;;;;;;2.60;1.10;;;18.10;99.90;;;;;;5078315;28;20056;-68
2022/06/20 10:37:12;;;;;;;1.95;0.98;;;18.10;99.90;;;;;;5091764;28;20086;-68
2022/06/20 10:40:15;;;;;;;2.45;1.08;;;18.10;99.90;;;;;;5080872;28;20131;-68
2022/06/20 10:43:22;;;;;;;2.45;1.00;;;18.00;99.90;;;;;;5064470;28;20431;-68
2022/06/20 10:45:56;;;;;;;1.50;0.90;;;17.90;99.90;;;;;;4989077;28;20046;-68
2022/06/20 10:48:52;;;;;;;3.17;1.30;;;17.90;99.90;;;;;;4989175;28;20066;-68
2022/06/20 10:51:43;;;;;;;4.93;1.13;;;17.80;99.90;;;;;;5055585;28;20056;-68
2022/06/20 10:54:29;;;;;;;3.60;1.17;;;17.70;99.90;;;;;;5086911;28;20053;-69
2022/06/20 10:57:19;;;;;;;3.10;1.15;;;17.60;99.90;;;;;;5071130;28;20044;-68
2022/06/20 11:00:14;;;;;;;4.05;1.30;;;17.40;99.90;;;;;;5071133;28;20052;-68
2022/06/20 11:03:07;;;;;;;2.95;1.08;;;17.30;99.90;;;;;;5071205;28;20040;-68
2022/06/20 11:06:07;;;;;;;3.45;1.35;;;17.20;99.90;;;;;;5070183;28;20053;-68
2022/06/20 11:09:01;;;;;;;3.25;1.20;;;17.20;99.90;;;;;;5071151;28;20081;-68
2022/06/20 11:11:27;;;;;;;3.63;1.30;;;17.30;99.90;;;;;;5071359;28;20075;-68
2022/06/20 11:14:30;;;;;;;1.95;1.00;;;17.50;99.90;;;;;;5053069;28;20076;-68
2022/06/20 11:16:56;;;;;;;3.55;1.10;;;17.80;99.90;;;;;;5091461;28;20085;-68
2022/06/20 11:19:47;;;;;;;2.38;0.95;;;18.00;99.90;;;;;;5073177;28;20056;-68
2022/06/20 11:22:38;;;;;;;2.40;1.00;;;18.10;99.90;;;;;;5091045;28;20044;-68
2022/06/20 11:25:16;;;;;;;1.27;0.80;;;18.30;99.90;;;;;;5080953;28;20100;-68
2022/06/20 11:28:19;;;;;;;3.92;1.23;;;18.30;99.90;;;;;;5091515;28;20049;-68
2022/06/20 11:31:17;;;;;;;4.05;1.40;;;18.40;99.90;;;;;;5068799;28;20159;-68
2022/06/20 11:34:18;;;;;;;3.78;1.20;;;18.60;99.90;;;;;;5081919;28;20563;-68
2022/06/20 11:36:54;;;;;;;2.33;0.95;;;18.60;99.90;;;;;;5088207;28;20107;-68
2022/06/20 11:39:31;;;;;;;2.75;1.33;;;18.50;99.90;;;;;;5090833;28;20060;-69
2022/06/20 11:42:29;;;;;;;3.10;1.08;;;18.20;99.90;;;;;;5091040;28;20123;-68
2022/06/20 11:45:19;;;;;;;3.75;1.45;;;18.10;99.90;;;;;;5090763;28;20047;-68
2022/06/20 11:47:58;;;;;;;2.17;0.93;;;18.20;99.90;;;;;;5083973;28;20044;-68
2022/06/20 11:50:37;;;;;;;2.63;1.10;;;18.40;99.90;;;;;;5090600;28;20093;-77
2022/06/20 11:53:27;;;;;;;3.20;1.00;;;18.40;99.90;;;;;;5090976;28;20120;-66
2022/06/20 11:56:12;;;;;;;2.95;1.00;;;18.30;99.90;;;;;;5090759;28;20036;-67
2022/06/20 11:59:00;;;;;;;2.03;1.20;;;18.20;99.90;;;;;;5090552;28;20052;-66
2022/06/20 12:01:32;;;;;;;2.75;1.00;;;18.20;99.90;;;;;;5090605;28;20123;-66
2022/06/20 12:04:10;;;;;;;3.28;1.20;;;18.10;99.90;;;;;;5090841;28;20052;-66
2022/06/20 12:07:03;;;;;;;2.75;1.30;;;18.30;99.90;;;;;;5078115;28;20055;-66
2022/06/20 12:09:56;;;;;;;2.88;1.25;;;18.60;99.90;;;;;;5090634;28;20056;-66
2022/06/20 12:12:35;;;;;;;2.65;1.02;;;18.60;99.90;;;;;;5032936;28;20062;-66
2022/06/20 12:15:30;;;;;;;3.17;1.30;;;18.70;99.90;;;;;;5084420;28;20047;-66
2022/06/20 12:18:17;;;;;;;5.53;1.30;;;18.70;99.90;;;;;;5090752;28;20126;-65
2022/06/20 12:23:30;;;;;;;3.28;1.20;;;18.90;99.90;;;;;;5090479;28;20356;-65
2022/06/20 12:26:21;;;;;;;4.20;1.17;;;19.20;99.90;;;;;;5090364;28;20051;-66
2022/06/20 12:28:50;;;;;;;3.13;1.23;;;19.10;99.90;;;;;;5072340;28;20051;-67
2022/06/20 12:31:25;;;;;;;3.75;1.38;;;18.90;99.90;;;;;;5090759;28;20040;-67
2022/06/20 12:33:51;;;;;;;3.58;1.17;;;18.70;99.90;;;;;;5090318;28;20399;-67
2022/06/20 12:36:23;;;;;;;3.88;1.00;;;18.70;99.90;;;;;;5090173;28;20044;-67
2022/06/20 12:38:55;;;;;;;3.90;1.30;;;18.70;99.90;;;;;;5090403;28;20052;-67
2022/06/20 12:41:23;;;;;;;3.15;1.02;;;18.80;99.90;;;;;;5087692;28;20416;-67
2022/06/20 12:44:06;;;;;;;4.28;1.40;;;18.90;99.90;;;;;;5070108;28;20141;-67
2022/06/20 12:47:01;;;;;;;2.90;1.55;;;18.80;99.90;;;;;;5069047;28;20481;-68
2022/06/20 12:50:02;;;;;;;2.80;1.25;;;18.70;99.90;;;;;;5032339;28;20059;-67
2022/06/20 12:52:37;;;;;;;5.40;1.42;;;18.80;99.90;;;;;;5089752;28;20052;-67
2022/06/20 12:55:22;;;;;;;4.05;1.50;;;18.80;99.90;;;;;;5090766;28;20048;-67
2022/06/20 12:58:08;;;;;;;4.40;1.30;;;18.80;99.90;;;;;;5072255;28;20056;-67
2022/06/20 13:00:43;;;;;;;4.45;1.50;;;18.90;99.90;;;;;;5031476;28;20512;-67
2022/06/20 13:03:27;;;;;;;3.28;1.10;;;19.00;99.90;;;;;;5090221;28;20039;-67
2022/06/20 13:05:53;;;;;;;2.47;1.40;;;19.00;99.90;;;;;;5089395;28;20137;-67
2022/06/20 13:08:37;;;;;;;1.98;1.20;;;19.20;99.90;;;;;;5091270;28;20068;-67
2022/06/20 13:11:10;;;;;;;3.25;1.35;;;19.30;99.90;;;;;;5093744;28;20434;-67
2022/06/20 13:14:01;;;;;;;3.90;1.05;;;19.20;99.90;;;;;;5093732;28;20407;-67
2022/06/20 13:17:04;;;;;;;2.75;1.15;;;19.00;99.90;;;;;;5073822;28;20037;-67
2022/06/20 13:19:39;;;;;;;3.15;1.30;;;19.10;99.90;;;;;;5076901;28;20056;-68
2022/06/20 13:22:42;;;;;;;4.40;1.30;;;19.30;99.90;;;;;;5080518;28;20180;-68
2022/06/20 13:25:10;;;;;;;4.00;1.95;;;19.20;99.90;;;;;;5085293;28;20131;-68
2022/06/20 13:28:08;;;;;;;3.15;1.13;;;19.00;99.90;;;;;;5093479;28;20051;-68
2022/06/20 13:30:50;;;;;;;2.45;1.30;;;18.80;99.90;;;;;;5074258;28;20047;-69
2022/06/20 13:33:30;;;;;;;3.00;1.20;;;18.70;99.90;;;;;;5092934;28;20044;-69
2022/06/20 13:36:45;;;;;;;2.45;1.13;;;18.90;99.90;;;;;;5092860;28;20072;-68
2022/06/20 13:39:53;;;;;;;2.85;1.33;;;19.20;99.90;;;;;;5092588;28;20373;-68
2022/06/20 13:42:32;;;;;;;2.83;1.10;;;19.50;99.90;;;;;;5037914;28;20052;-68
2022/06/20 13:45:10;;;;;;;2.83;1.02;;;19.70;99.90;;;;;;5074876;28;20108;-69
2022/06/20 13:47:45;;;;;;;2.00;1.17;;;19.60;99.90;;;;;;5085264;28;20094;-69
2022/06/20 13:50:15;;;;;;;4.13;1.50;;;19.70;99.90;;;;;;5057859;28;20442;-69
2022/06/20 13:52:46;;;;;;;2.35;1.20;;;19.70;99.90;;;;;;5054875;28;20488;-69
2022/06/20 13:55:35;;;;;;;3.20;1.60;;;19.60;99.90;;;;;;5072627;28;20122;-69
2022/06/20 13:58:38;;;;;;;2.35;1.20;;;19.50;99.90;;;;;;5072478;28;20091;-68
2022/06/20 14:01:09;;;;;;;3.20;1.20;;;19.50;99.90;;;;;;5082963;28;20075;-69